Time;durP1;ratioP1;P1;durP2;ratioP2;P2;SDS_P1;SDS_P2;PMS_P1;PMS_P2;Temp;Humidity;BMP_temperature;BMP_pressure;BME280_temperature;BME280_humidity;BME280_pressure;Samples;Min_cycle;Max_cycle;Signal;HPM_P1;HPM_P2
2022/04/14 00:00:17;;;;;;;67.93;38.45;;;;;;;9.29;100.00;101997.88;6185667;23;20430;-84
2022/04/14 00:02:42;;;;;;;67.40;38.72;;;;;;;9.44;100.00;102023.06;6186217;23;20002;-84
2022/04/14 00:05:11;;;;;;;69.65;38.08;;;;;;;9.38;100.00;102019.88;6186219;23;20012;-79
2022/04/14 00:07:36;;;;;;;64.53;36.05;;;;;;;9.41;100.00;102018.00;6186043;23;20008;-80
2022/04/14 00:10:05;;;;;;;64.68;37.40;;;;;;;9.41;100.00;102020.59;6185837;23;20599;-80
2022/04/14 00:12:31;;;;;;;61.20;35.40;;;;;;;9.24;100.00;101986.06;6186215;23;20005;-84
2022/04/14 00:14:56;;;;;;;63.53;37.75;;;;;;;9.40;100.00;102011.19;6185652;23;20076;-81
2022/04/14 00:17:21;;;;;;;66.03;36.75;;;;;;;9.22;100.00;101980.13;6186175;23;20005;-80
2022/04/14 00:19:47;;;;;;;64.72;37.08;;;;;;;9.37;100.00;102008.72;6185812;23;20008;-81
2022/04/14 00:22:12;;;;;;;59.30;34.63;;;;;;;9.37;100.00;102003.56;6185798;23;20020;-80
2022/04/14 00:24:37;;;;;;;65.07;36.35;;;;;;;9.36;100.00;102001.91;6185995;23;20033;-79
2022/04/14 00:27:03;;;;;;;58.05;34.55;;;;;;;9.33;100.00;101998.59;6185732;23;20000;-79
2022/04/14 00:29:29;;;;;;;70.25;39.60;;;;;;;9.10;100.00;101963.41;6185803;23;20051;-79
2022/04/14 00:31:54;;;;;;;63.42;36.35;;;;;;;9.34;100.00;101998.56;6185923;23;20335;-81
2022/04/14 00:34:19;;;;;;;66.85;37.50;;;;;;;9.35;100.00;102007.97;6185844;23;20001;-80
2022/04/14 00:36:48;;;;;;;64.40;37.92;;;;;;;9.34;100.00;102002.84;6185637;23;20039;-79
2022/04/14 00:39:13;;;;;;;65.05;37.45;;;;;;;9.25;100.00;101990.34;6185590;23;20001;-81
2022/04/14 00:41:38;;;;;;;60.85;35.25;;;;;;;9.29;100.00;101997.88;6185727;23;20072;-80
2022/04/14 00:44:04;;;;;;;57.20;35.58;;;;;;;9.31;100.00;101998.66;6185511;23;20327;-80
2022/04/14 00:46:29;;;;;;;57.15;34.55;;;;;;;9.24;100.00;101991.22;6186031;23;19997;-80
2022/04/14 00:48:55;;;;;;;55.40;32.67;;;;;;;9.19;100.00;101991.41;6185843;23;20410;-81
2022/04/14 00:51:20;;;;;;;56.22;34.30;;;;;;;9.15;100.00;101982.13;6185366;23;20147;-79
2022/04/14 00:53:46;;;;;;;58.10;34.42;;;;;;;9.24;100.00;102004.09;6184849;23;20005;-82
2022/04/14 00:56:11;;;;;;;60.13;35.55;;;;;;;9.19;100.00;101992.22;6185817;23;20419;-79
2022/04/14 00:58:37;;;;;;;54.47;33.92;;;;;;;8.93;100.00;101953.72;6185901;23;20009;-83
2022/04/14 01:01:05;;;;;;;59.03;35.40;;;;;;;9.18;100.00;101997.47;6185625;23;20012;-82
2022/04/14 01:03:31;;;;;;;58.78;34.47;;;;;;;9.15;100.00;101995.84;6185545;23;20005;-84
2022/04/14 01:05:56;;;;;;;57.97;35.30;;;;;;;9.14;100.00;102001.91;6185787;23;20055;-80
2022/04/14 01:08:22;;;;;;;58.85;34.83;;;;;;;9.07;100.00;101994.44;6185410;23;20423;-81
2022/04/14 01:10:49;;;;;;;55.45;33.35;;;;;;;8.96;100.00;101976.00;6187156;23;20012;-81
2022/04/14 01:13:18;;;;;;;57.55;34.30;;;;;;;9.07;100.00;101997.88;6187587;23;20009;-79
2022/04/14 01:15:45;;;;;;;60.83;34.65;;;;;;;8.87;100.00;101965.13;6187637;23;20079;-83
2022/04/14 01:18:11;;;;;;;57.88;34.70;;;;;;;9.05;100.00;101998.84;6187845;23;20005;-79
2022/04/14 01:20:38;;;;;;;60.28;34.08;;;;;;;8.85;100.00;101969.50;6187785;23;20335;-81
2022/04/14 01:23:04;;;;;;;59.67;34.08;;;;;;;8.67;100.00;101939.28;6187327;23;20005;-81
2022/04/14 01:25:32;;;;;;;57.20;33.63;;;;;;;8.73;100.00;101949.34;6187559;23;20104;-84
2022/04/14 01:27:57;;;;;;;67.45;36.70;;;;;;;8.93;100.00;101984.66;6161702;23;20033;-83
2022/04/14 01:30:23;;;;;;;57.83;35.00;;;;;;;8.91;100.00;101982.13;6187391;23;20012;-79
2022/04/14 01:32:49;;;;;;;60.75;36.38;;;;;;;9.01;100.00;101994.66;6187212;23;20497;-80
2022/04/14 01:35:15;;;;;;;63.22;37.20;;;;;;;8.87;100.00;101980.59;6187429;23;20043;-82
2022/04/14 01:37:40;;;;;;;60.58;35.20;;;;;;;8.79;100.00;101969.72;6187589;23;20047;-82
2022/04/14 01:40:07;;;;;;;64.25;36.63;;;;;;;8.91;100.00;102001.91;6187623;23;20002;-83
2022/04/14 01:42:32;;;;;;;60.05;35.40;;;;;;;8.88;100.00;102002.88;6187615;23;20001;-83
2022/04/14 01:44:58;;;;;;;59.17;36.03;;;;;;;8.71;100.00;101974.31;6187818;23;20001;-83
2022/04/14 01:47:23;;;;;;;63.92;36.67;;;;;;;8.58;100.00;101958.47;6187233;23;20012;-83
2022/04/14 01:49:48;;;;;;;60.63;35.55;;;;;;;8.81;100.00;101998.00;6187177;23;20008;-84
2022/04/14 01:52:14;;;;;;;62.28;36.17;;;;;;;8.61;100.00;101966.09;6186864;23;20048;-80
2022/04/14 01:54:39;;;;;;;56.38;34.17;;;;;;;8.70;100.00;101985.50;6187009;23;20008;-83
2022/04/14 01:57:05;;;;;;;64.22;37.88;;;;;;;8.68;100.00;101989.88;6187457;23;20450;-80
2022/04/14 01:59:32;;;;;;;59.42;35.92;;;;;;;8.54;100.00;101972.34;6187203;23;20005;-80
2022/04/14 02:01:58;;;;;;;60.97;36.17;;;;;;;8.47;100.00;101972.66;6187345;23;20008;-80
2022/04/14 02:04:23;;;;;;;64.03;39.38;;;;;;;8.62;100.00;101987.53;6187164;23;20009;-81
2022/04/14 02:06:48;;;;;;;65.53;37.95;;;;;;;8.69;100.00;102004.44;6187361;23;20016;-83
2022/04/14 02:09:14;;;;;;;61.17;36.55;;;;;;;8.50;100.00;101980.25;6186651;23;20012;-82
2022/04/14 02:11:39;;;;;;;66.10;37.83;;;;;;;8.68;100.00;102010.50;6186906;23;20005;-80
2022/04/14 02:14:04;;;;;;;68.07;39.00;;;;;;;8.39;100.00;101960.03;6187220;23;20004;-82
2022/04/14 02:16:30;;;;;;;62.58;37.97;;;;;;;8.56;100.00;101986.03;6187217;23;20011;-83
2022/04/14 02:18:55;;;;;;;74.50;41.15;;;;;;;8.71;100.00;102015.50;6187075;23;20005;-84
2022/04/14 02:21:20;;;;;;;68.22;39.80;;;;;;;8.72;100.00;102001.75;6187047;23;20005;-84
2022/04/14 02:23:46;;;;;;;66.53;38.83;;;;;;;8.72;100.00;102008.63;6186965;23;20054;-80
2022/04/14 02:26:12;;;;;;;68.78;40.92;;;;;;;8.53;100.00;101980.13;6186775;23;20001;-79
2022/04/14 02:28:37;;;;;;;70.20;39.50;;;;;;;8.53;100.00;101993.84;6186949;23;20011;-80
2022/04/14 02:31:02;;;;;;;73.30;41.58;;;;;;;8.60;100.00;102003.03;6187205;23;20044;-80
2022/04/14 02:33:28;;;;;;;70.18;40.00;;;;;;;8.43;100.00;101982.19;6187237;23;20032;-80
2022/04/14 02:35:53;;;;;;;74.90;42.25;;;;;;;8.63;100.00;102018.34;6187092;23;20005;-82
2022/04/14 02:38:18;;;;;;;74.57;41.00;;;;;;;8.59;100.00;102015.97;6186897;23;20088;-79
2022/04/14 02:40:44;;;;;;;74.13;41.20;;;;;;;8.60;100.00;102017.63;6186522;23;20008;-79
2022/04/14 02:43:09;;;;;;;74.82;41.38;;;;;;;8.45;100.00;101998.41;6186913;23;20009;-80
2022/04/14 02:45:34;;;;;;;73.45;41.00;;;;;;;8.20;100.00;101967.53;6186891;23;20005;-79
2022/04/14 02:48:00;;;;;;;71.07;40.72;;;;;;;8.50;100.00;102014.56;6187164;23;20015;-79
2022/04/14 02:50:28;;;;;;;83.80;46.03;;;;;;;8.46;100.00;102005.28;6186489;23;20013;-80
2022/04/14 02:52:54;;;;;;;67.05;39.25;;;;;;;8.47;100.00;102021.56;6186446;23;20083;-79
2022/04/14 02:55:20;;;;;;;71.20;41.50;;;;;;;8.41;100.00;102014.88;6186587;23;20067;-80
2022/04/14 02:57:46;;;;;;;73.35;40.97;;;;;;;8.42;100.00;102020.84;6186353;23;20423;-80
2022/04/14 03:00:12;;;;;;;72.22;40.10;;;;;;;8.14;100.00;101978.03;6186619;23;20009;-80
2022/04/14 03:02:41;;;;;;;73.20;40.60;;;;;;;8.35;100.00;102017.66;6186286;23;20076;-80
2022/04/14 03:05:08;;;;;;;69.53;40.88;;;;;;;8.30;100.00;102011.81;6186657;23;20005;-80
2022/04/14 03:07:34;;;;;;;82.78;44.92;;;;;;;8.31;100.00;102013.47;6186513;23;20497;-81
2022/04/14 03:10:00;;;;;;;70.53;42.63;;;;;;;8.08;100.00;101985.97;6186641;23;20005;-79
2022/04/14 03:12:25;;;;;;;70.68;39.70;;;;;;;8.02;100.00;101983.59;6186543;23;20059;-80
2022/04/14 03:14:51;;;;;;;82.35;43.35;;;;;;;8.21;100.00;102017.25;6186704;23;20323;-79
2022/04/14 03:17:17;;;;;;;80.75;43.83;;;;;;;8.11;100.00;102005.59;6184543;23;20001;-79
2022/04/14 03:19:42;;;;;;;79.72;41.92;;;;;;;8.14;100.00;102016.63;6186402;23;20028;-79
2022/04/14 03:22:08;;;;;;;73.60;39.88;;;;;;;8.08;100.00;102019.41;6186335;23;20001;-82
2022/04/14 03:24:33;;;;;;;70.65;39.25;;;;;;;8.03;100.00;102011.84;6186559;23;20009;-79
2022/04/14 03:26:58;;;;;;;73.47;40.95;;;;;;;7.92;100.00;101997.66;6186024;23;19997;-79
2022/04/14 03:29:24;;;;;;;81.35;43.05;;;;;;;7.91;100.00;102007.09;6186400;23;20084;-78
2022/04/14 03:31:49;;;;;;;79.43;43.45;;;;;;;7.92;100.00;102013.09;6185876;23;20005;-79
2022/04/14 03:34:14;;;;;;;74.93;43.45;;;;;;;7.80;100.00;102004.03;6186430;23;20000;-79
2022/04/14 03:36:40;;;;;;;73.50;42.20;;;;;;;7.82;100.00;102015.13;6186038;23;20005;-77
2022/04/14 03:39:05;;;;;;;77.05;43.80;;;;;;;7.61;100.00;101983.22;6186738;23;20370;-78
2022/04/14 03:41:31;;;;;;;80.07;44.15;;;;;;;7.73;100.00;102000.00;6186515;23;20012;-79
2022/04/14 03:43:57;;;;;;;76.43;42.28;;;;;;;7.42;100.00;101969.28;6184069;23;20334;-79
2022/04/14 03:46:22;;;;;;;75.40;42.47;;;;;;;7.61;100.00;102001.22;6186129;23;19997;-78
2022/04/14 03:48:48;;;;;;;70.35;39.58;;;;;;;7.63;100.00;102017.44;6186388;23;20028;-79
2022/04/14 03:51:14;;;;;;;77.65;42.17;;;;;;;7.42;100.00;101988.13;6186102;23;20143;-79
2022/04/14 03:53:43;;;;;;;99.90;51.20;;;;;;;7.63;100.00;102014.03;6186320;23;20131;-80
2022/04/14 03:56:09;;;;;;;82.03;43.55;;;;;;;7.52;100.00;102009.22;6186324;23;20009;-80
2022/04/14 03:58:34;;;;;;;74.05;41.13;;;;;;;7.55;100.00;102027.13;6185875;23;20458;-79
2022/04/14 04:00:59;;;;;;;74.22;40.42;;;;;;;7.47;100.00;102014.53;6186135;23;20374;-80
2022/04/14 04:03:25;;;;;;;74.38;42.08;;;;;;;7.46;100.00;102017.13;6186367;23;20021;-80
2022/04/14 04:05:50;;;;;;;73.72;41.50;;;;;;;7.42;100.00;102016.38;6186001;23;20012;-83
2022/04/14 04:08:17;;;;;;;82.15;43.17;;;;;;;7.41;100.00;102016.44;6186455;23;20008;-79
2022/04/14 04:10:42;;;;;;;75.65;41.03;;;;;;;7.26;100.00;102016.88;6185860;23;20013;-79
2022/04/14 04:13:08;;;;;;;75.05;40.63;;;;;;;7.26;100.00;102019.44;6185780;23;20442;-80
2022/04/14 04:15:33;;;;;;;74.22;40.85;;;;;;;7.28;100.00;102030.56;6185677;23;20438;-80
2022/04/14 04:17:58;;;;;;;82.47;43.78;;;;;;;7.24;100.00;102029.78;6186153;23;20001;-78
2022/04/14 04:20:25;;;;;;;80.97;42.67;;;;;;;7.21;100.00;102031.63;6184019;23;20415;-79
2022/04/14 04:22:50;;;;;;;82.30;42.85;;;;;;;7.14;100.00;102013.78;6158968;23;20009;-82
2022/04/14 04:25:15;;;;;;;89.40;44.95;;;;;;;7.30;100.00;102036.47;6186218;23;20012;-79
2022/04/14 04:27:41;;;;;;;74.55;42.28;;;;;;;6.74;100.00;101951.66;6158885;23;20009;-79
2022/04/14 04:30:08;;;;;;;80.72;42.00;;;;;;;7.23;100.00;102025.53;6185124;23;20009;-80
2022/04/14 04:32:34;;;;;;;81.97;42.35;;;;;;;7.32;100.00;102039.84;6185562;23;20055;-83
2022/04/14 04:35:04;;;;;;;88.65;43.13;;;;;;;7.23;100.00;102022.13;6185597;23;20084;-79
2022/04/14 04:37:30;;;;;;;117.10;47.65;;;;;;;7.44;100.00;102039.47;6185552;23;20438;-79
2022/04/14 04:39:56;;;;;;;143.50;53.53;;;;;;;7.56;100.00;102041.63;6185953;23;20008;-79
2022/04/14 04:42:21;;;;;;;127.65;52.72;;;;;;;7.50;100.00;102025.59;6185785;23;20012;-80
2022/04/14 04:44:46;;;;;;;145.52;52.65;;;;;;;7.60;100.00;102043.25;6185387;23;20419;-80
2022/04/14 04:47:12;;;;;;;158.73;53.90;;;;;;;7.56;100.00;102033.94;6185523;23;20004;-83
2022/04/14 04:49:37;;;;;;;177.65;52.92;;;;;;;7.55;100.00;102034.81;6185751;23;20119;-83
2022/04/14 04:52:03;;;;;;;172.43;53.63;;;;;;;7.44;100.00;102018.91;6185317;23;20189;-83
2022/04/14 04:54:28;;;;;;;178.88;53.38;;;;;;;7.65;100.00;102050.81;6185825;23;20001;-82
2022/04/14 04:56:54;;;;;;;255.82;58.72;;;;;;;7.50;100.00;102026.44;6185241;23;20084;-83
2022/04/14 04:59:19;;;;;;;157.32;53.75;;;;;;;7.81;100.00;102067.44;6185353;23;20013;-80
2022/04/14 05:01:44;;;;;;;249.35;57.15;;;;;;;7.63;100.00;102030.28;6185309;23;20005;-83
2022/04/14 05:04:12;;;;;;;191.82;56.22;;;;;;;7.86;100.00;102051.84;6185904;23;20001;-80
2022/04/14 05:06:39;;;;;;;197.25;54.90;;;;;;;7.83;100.00;102037.38;6185860;23;20001;-84
2022/04/14 05:09:04;;;;;;;158.82;55.25;;;;;;;7.96;100.00;102059.25;6185501;23;20005;-81
2022/04/14 05:11:30;;;;;;;142.63;54.28;;;;;;;7.75;100.00;102019.59;6185423;23;20465;-79
2022/04/14 05:13:55;;;;;;;132.25;53.95;;;;;;;7.99;100.00;102060.88;6185525;23;20087;-81
2022/04/14 05:16:20;;;;;;;146.13;55.05;;;;;;;7.88;100.00;102044.97;6185582;23;20009;-81
2022/04/14 05:18:46;;;;;;;127.47;55.58;;;;;;;7.77;100.00;102024.72;6185657;23;20005;-80
2022/04/14 05:21:11;;;;;;;143.80;54.50;;;;;;;7.97;100.00;102054.94;6185415;23;20005;-79
2022/04/14 05:23:36;;;;;;;233.32;58.40;;;;;;;7.99;100.00;102066.03;6185407;23;20308;-79
2022/04/14 05:26:02;;;;;;;169.88;55.20;;;;;;;7.88;100.00;102056.09;6185445;23;20002;-84
2022/04/14 05:28:27;;;;;;;189.75;56.60;;;;;;;7.96;100.00;102073.81;6185313;23;20005;-84
2022/04/14 05:30:52;;;;;;;122.20;54.30;;;;;;;7.93;100.00;102077.34;6185052;23;20036;-83
2022/04/14 05:33:18;;;;;;;127.72;54.17;;;;;;;7.98;100.00;102079.78;6185439;23;20012;-83
2022/04/14 05:35:44;;;;;;;145.35;55.42;;;;;;;7.97;100.00;102075.53;6185500;23;20013;-78
2022/04/14 05:38:10;;;;;;;125.47;54.55;;;;;;;8.03;100.00;102089.00;6185557;23;20071;-77
2022/04/14 05:40:41;;;;;;;151.07;55.22;;;;;;;8.05;100.00;102084.66;6185634;23;20369;-85
2022/04/14 05:43:17;;;;;;;120.03;54.80;;;;;;;8.01;100.00;102074.53;6185386;23;20012;-77
2022/04/14 05:45:47;;;;;;;141.20;57.58;;;;;;;8.23;100.00;102096.06;6185106;23;20457;-75
2022/04/14 05:48:14;;;;;;;139.82;56.92;;;;;;;8.27;100.00;102087.38;6185280;23;20005;-77
2022/04/14 05:50:49;;;;;;;122.38;57.47;;;;;;;8.50;100.00;102098.66;6185465;23;20035;-78
2022/04/14 05:53:16;;;;;;;133.23;56.13;;;;;;;8.68;100.00;102097.19;6184902;23;20013;-76
2022/04/14 05:55:42;;;;;;;104.30;53.75;;;;;;;8.62;100.00;102068.19;6186580;23;20005;-78
2022/04/14 05:58:08;;;;;;;102.20;52.60;;;;;;;9.05;100.00;102102.72;6187700;23;20048;-79
2022/04/14 06:00:35;;;;;;;98.78;51.85;;;;;;;9.33;100.00;102105.13;6187266;23;20005;-79
2022/04/14 06:03:01;;;;;;;93.07;51.22;;;;;;;9.42;100.00;102071.25;6185518;23;20435;-74
2022/04/14 06:05:27;;;;;;;105.38;50.67;;;;;;;9.90;100.00;102097.78;6187410;23;20012;-76
2022/04/14 06:07:54;;;;;;;83.50;46.05;;;;;;;10.34;99.24;102101.19;6186571;23;20075;-76
2022/04/14 06:10:19;;;;;;;82.82;46.90;;;;;;;10.99;96.41;102094.06;6186934;23;20008;-75
2022/04/14 06:12:45;;;;;;;74.18;44.97;;;;;;;11.99;91.87;102096.31;6186993;23;20371;-77
2022/04/14 06:15:10;;;;;;;68.80;42.70;;;;;;;12.92;86.41;102063.06;6187045;23;20411;-76
2022/04/14 06:17:36;;;;;;;68.03;42.25;;;;;;;14.32;80.48;102086.38;6186891;23;20412;-76
2022/04/14 06:20:03;;;;;;;59.97;38.80;;;;;;;15.13;76.34;102088.47;6186851;23;20001;-73
2022/04/14 06:22:28;;;;;;;60.13;37.85;;;;;;;15.94;72.58;102094.59;6186786;23;20012;-75
2022/04/14 06:24:58;;;;;;;54.90;35.42;;;;;;;16.71;69.36;102092.91;6187144;23;20008;-74
2022/04/14 06:27:23;;;;;;;54.17;35.92;;;;;;;17.12;65.60;102050.06;6187144;23;20001;-77
2022/04/14 06:29:48;;;;;;;55.95;36.35;;;;;;;17.91;63.37;102073.03;6186981;23;20004;-75
2022/04/14 06:32:13;;;;;;;53.17;36.05;;;;;;;18.53;61.36;102082.31;6186668;23;20009;-86
2022/04/14 06:34:39;;;;;;;55.88;36.50;;;;;;;18.93;59.92;102101.03;6186812;23;20028;-74
2022/04/14 06:37:04;;;;;;;53.55;34.90;;;;;;;19.45;58.86;102096.88;6186993;23;20075;-76
2022/04/14 06:39:29;;;;;;;56.25;33.38;;;;;;;19.72;57.50;102097.31;6186797;23;20005;-75
2022/04/14 06:41:55;;;;;;;48.53;34.35;;;;;;;20.18;56.50;102090.06;6186822;23;20449;-74
2022/04/14 06:44:20;;;;;;;52.13;34.08;;;;;;;20.61;54.88;102103.03;6186650;23;20005;-76
2022/04/14 06:46:46;;;;;;;55.65;33.35;;;;;;;20.78;53.53;102098.97;6160089;23;20036;-76
2022/04/14 06:49:11;;;;;;;50.42;33.28;;;;;;;20.84;53.54;102103.69;6186748;23;20001;-73
2022/04/14 06:51:36;;;;;;;50.08;33.25;;;;;;;20.92;52.67;102067.09;6185082;23;20012;-73
2022/04/14 06:54:02;;;;;;;52.10;33.03;;;;;;;21.06;52.18;102100.03;6156760;23;20029;-75
2022/04/14 06:56:27;;;;;;;49.33;33.55;;;;;;;21.45;51.65;102095.72;6156894;23;20008;-77
2022/04/14 06:58:53;;;;;;;53.05;33.97;;;;;;;21.75;50.09;102086.88;6156726;23;20005;-73
2022/04/14 07:01:18;;;;;;;49.78;32.05;;;;;;;21.76;49.84;102080.66;6156550;23;20057;-74
2022/04/14 07:03:43;;;;;;;51.95;33.50;;;;;;;21.70;49.94;102060.16;6156661;23;20005;-74
2022/04/14 07:06:09;;;;;;;50.60;32.42;;;;;;;22.11;48.91;102097.66;6156803;23;20025;-75
2022/04/14 07:08:34;;;;;;;48.15;31.05;;;;;;;21.42;50.93;102086.31;6156547;23;20005;-77
2022/04/14 07:11:00;;;;;;;53.28;31.67;;;;;;;20.01;53.61;102094.09;6156533;23;20006;-76
2022/04/14 07:13:26;;;;;;;53.03;31.17;;;;;;;18.17;58.32;102085.94;6156588;23;20012;-76
2022/04/14 07:15:52;;;;;;;49.80;31.20;;;;;;;16.84;63.24;102096.34;6156304;23;20002;-74
2022/04/14 07:18:17;;;;;;;49.85;31.08;;;;;;;15.96;65.62;102110.13;6156305;23;20001;-74
2022/04/14 07:20:44;;;;;;;55.30;32.70;;;;;;;15.21;69.10;102112.25;6156583;23;20005;-74
2022/04/14 07:23:09;;;;;;;58.88;32.05;;;;;;;14.60;71.33;102115.97;6130385;23;20432;-75
2022/04/14 07:25:35;;;;;;;53.22;32.42;;;;;;;14.13;74.16;102122.13;6156434;23;20029;-74
2022/04/14 07:28:01;;;;;;;54.33;32.30;;;;;;;13.85;76.04;102122.03;6156595;23;20008;-72
2022/04/14 07:30:26;;;;;;;59.63;34.38;;;;;;;13.47;77.42;102107.66;6156418;23;20085;-75
2022/04/14 07:32:53;;;;;;;56.78;33.80;;;;;;;13.25;79.24;102098.53;6156451;23;20034;-79
2022/04/14 07:35:22;;;;;;;56.00;33.00;;;;;;;13.23;80.03;102111.59;6156417;23;20012;-75
2022/04/14 07:37:48;;;;;;;56.90;32.03;;;;;;;13.13;80.29;102124.16;6156267;23;20416;-76
2022/04/14 07:40:14;;;;;;;55.65;31.92;;;;;;;13.05;81.36;102125.50;6156641;23;20002;-76
2022/04/14 07:42:42;;;;;;;54.60;32.13;;;;;;;13.02;82.60;102126.50;6156379;23;20013;-77
2022/04/14 07:45:09;;;;;;;51.70;31.85;;;;;;;12.94;82.55;102118.28;6156462;23;20001;-76
2022/04/14 07:47:35;;;;;;;50.75;31.00;;;;;;;12.97;82.10;102125.03;6156074;23;20435;-76
2022/04/14 07:50:00;;;;;;;56.40;29.73;;;;;;;12.94;83.21;102115.69;6156265;23;20005;-77
2022/04/14 07:52:26;;;;;;;48.42;28.65;;;;;;;13.02;82.67;102121.31;6167875;23;20051;-77
2022/04/14 07:54:51;;;;;;;47.35;26.75;;;;;;;12.99;82.17;102115.47;6186205;23;20005;-77
2022/04/14 07:57:17;;;;;;;46.45;28.02;;;;;;;13.20;83.57;102137.69;6186207;23;20005;-78
2022/04/14 07:59:42;;;;;;;47.05;27.05;;;;;;;13.26;83.05;102139.94;6185844;23;20059;-78
2022/04/14 08:02:08;;;;;;;48.83;26.17;;;;;;;13.15;81.71;102119.72;6185620;23;20023;-79
2022/04/14 08:04:34;;;;;;;50.20;25.55;;;;;;;13.34;81.73;102137.78;6186309;23;20415;-78
2022/04/14 08:06:59;;;;;;;36.72;22.10;;;;;;;13.31;81.65;102118.97;6186322;23;20418;-77
2022/04/14 08:09:25;;;;;;;42.65;23.35;;;;;;;13.25;80.90;102104.53;6185707;23;20418;-77
2022/04/14 08:11:50;;;;;;;39.42;22.30;;;;;;;13.47;80.75;102141.41;6173745;23;20005;-77
2022/04/14 08:14:15;;;;;;;43.88;23.08;;;;;;;13.26;79.39;102098.44;6185729;23;20005;-77
2022/04/14 08:16:41;;;;;;;40.58;22.67;;;;;;;13.55;79.03;102142.72;6185803;23;20331;-77
2022/04/14 08:19:06;;;;;;;34.60;20.98;;;;;;;13.59;80.15;102142.50;6185412;23;20427;-76
2022/04/14 08:21:31;;;;;;;33.72;19.92;;;;;;;13.58;78.99;102133.03;6185783;23;20005;-73
2022/04/14 08:23:58;;;;;;;34.35;19.55;;;;;;;13.69;79.47;102135.03;6158977;23;20036;-78
2022/04/14 08:26:25;;;;;;;34.42;20.67;;;;;;;13.63;77.48;102127.56;6185594;23;20324;-80
2022/04/14 08:28:55;;;;;;;37.58;22.00;;;;;;;13.81;79.59;102131.75;6186051;23;20040;-77
2022/04/14 08:31:24;;;;;;;34.90;20.38;;;;;;;13.73;79.58;102108.81;6185586;23;20005;-79
2022/04/14 08:33:50;;;;;;;38.90;21.67;;;;;;;13.95;77.98;102129.22;6185324;23;20005;-78
2022/04/14 08:36:16;;;;;;;42.17;23.83;;;;;;;13.95;79.11;102129.22;6185669;23;20001;-81
2022/04/14 08:38:46;;;;;;;40.65;22.90;;;;;;;13.95;77.83;102120.59;6185648;23;20032;-78
2022/04/14 08:41:14;;;;;;;39.47;23.48;;;;;;;14.06;77.67;102137.25;6185582;23;20056;-78
2022/04/14 08:44:10;;;;;;;48.88;24.75;;;;;;;14.14;78.59;102148.94;6185513;23;20438;-78
2022/04/14 08:46:36;;;;;;;37.88;22.23;;;;;;;14.10;76.96;102132.72;6065904;23;20010;-77
2022/04/14 08:49:02;;;;;;;38.65;22.95;;;;;;;14.20;77.51;102139.06;6065569;23;20090;-80
2022/04/14 08:51:33;;;;;;;34.17;21.30;;;;;;;14.04;76.24;102109.66;6065903;23;20179;-79
2022/04/14 08:53:59;;;;;;;34.03;21.70;;;;;;;14.14;75.81;102120.38;6094755;23;20019;-78
2022/04/14 08:56:24;;;;;;;38.75;22.45;;;;;;;14.24;77.68;102122.34;6094554;23;20074;-79
2022/04/14 08:58:54;;;;;;;35.53;20.55;;;;;;;14.37;74.90;102139.84;6094546;23;20006;-78
2022/04/14 09:01:19;;;;;;;31.85;18.08;;;;;;;14.41;72.81;102146.53;6094648;23;20010;-80
2022/04/14 09:03:47;;;;;;;32.55;18.95;;;;;;;14.48;74.22;102140.94;6094369;23;20042;-80
2022/04/14 09:06:13;;;;;;;31.52;18.55;;;;;;;14.55;73.58;102139.66;6094550;23;20010;-79
2022/04/14 09:08:38;;;;;;;26.48;16.77;;;;;;;14.66;73.15;102136.41;6094562;23;20018;-79
2022/04/14 09:11:07;;;;;;;27.50;15.45;;;;;;;14.74;71.93;102141.97;6094570;23;20021;-78
2022/04/14 09:13:32;;;;;;;28.30;15.65;;;;;;;14.76;71.46;102132.34;6094682;23;20341;-79
2022/04/14 09:15:58;;;;;;;22.92;12.32;;;;;;;14.80;70.00;102123.41;6094835;23;20038;-79
2022/04/14 09:18:23;;;;;;;21.80;11.10;;;;;;;14.85;69.17;102125.75;6094338;23;20061;-80
2022/04/14 09:21:02;;;;;;;22.35;10.52;;;;;;;14.84;69.35;102108.47;6094572;23;20417;-79
2022/04/14 09:23:27;;;;;;;14.65;8.85;;;;;;;14.88;68.57;102109.97;6160040;23;20473;-82
2022/04/14 09:26:06;;;;;;;18.05;11.30;;;;;;;15.00;68.50;102123.97;6185243;23;20005;-81
2022/04/14 09:28:32;;;;;;;20.67;9.57;;;;;;;15.00;67.89;102108.38;6185501;23;20005;-78
2022/04/14 09:31:09;;;;;;;18.75;9.57;;;;;;;15.10;67.92;102117.28;6186867;23;20005;-78
2022/04/14 09:33:36;;;;;;;19.27;10.02;;;;;;;15.13;66.38;102117.91;6160500;23;20092;-80
2022/04/14 09:36:09;;;;;;;14.88;7.45;;;;;;;15.23;67.82;102112.97;6187255;23;20423;-79
2022/04/14 09:38:55;;;;;;;14.45;7.43;;;;;;;15.31;67.46;102115.94;6187346;23;20008;-82
2022/04/14 09:41:30;;;;;;;17.33;8.90;;;;;;;15.37;65.93;102115.56;6187465;23;20008;-83
2022/04/14 09:43:58;;;;;;;17.38;9.27;;;;;;;15.27;64.70;102092.81;6187569;23;20013;-80
2022/04/14 09:46:23;;;;;;;15.50;9.20;;;;;;;15.45;66.04;102107.28;6187443;23;20001;-79
2022/04/14 09:49:12;;;;;;;14.18;7.47;;;;;;;15.22;65.63;102056.66;6187188;23;20331;-81
2022/04/14 09:51:44;;;;;;;18.90;8.07;;;;;;;15.57;64.12;102093.50;6186864;23;20032;-80
2022/04/14 09:54:13;;;;;;;15.38;8.85;;;;;;;15.61;63.03;102094.16;6187527;23;20016;-80
2022/04/14 09:56:46;;;;;;;17.80;8.07;;;;;;;15.32;63.59;102051.72;6187658;23;20005;-80
2022/04/14 09:59:14;;;;;;;13.43;6.20;;;;;;;15.69;63.07;102095.34;6187577;23;20016;-80
2022/04/14 10:01:40;;;;;;;12.27;6.07;;;;;;;15.78;63.41;102091.31;6187472;23;20008;-80
2022/04/14 10:04:06;;;;;;;12.90;8.07;;;;;;;15.82;64.57;102084.94;6187345;23;20063;-79
2022/04/14 10:14:09;;;;;;;10.63;4.20;;;;;;;16.19;63.00;102101.63;6220255;23;20024;-79
2022/04/14 10:16:35;;;;;;;10.90;5.53;;;;;;;16.33;60.00;102111.13;6247385;23;20497;-80
2022/04/14 10:19:02;;;;;;;7.95;4.20;;;;;;;16.31;58.47;102095.56;6247362;23;20008;-81
2022/04/14 10:21:34;;;;;;;6.10;3.13;;;;;;;16.48;58.75;102114.47;6247212;23;20440;-82
2022/04/14 10:24:00;;;;;;;7.00;2.83;;;;;;;16.59;58.38;102127.63;6247402;23;20004;-80
2022/04/14 10:26:26;;;;;;;10.02;4.32;;;;;;;16.58;59.54;102110.31;6247251;23;20012;-81
2022/04/14 10:28:52;;;;;;;10.55;4.82;;;;;;;16.37;58.20;102083.09;6247337;23;20374;-81
2022/04/14 10:31:18;;;;;;;9.68;3.95;;;;;;;16.59;58.99;102091.94;6247415;23;20062;-80
2022/04/14 10:33:48;;;;;;;9.85;3.47;;;;;;;16.93;57.16;102120.97;6247012;23;20000;-81
2022/04/14 10:36:13;;;;;;;8.52;4.25;;;;;;;16.90;58.12;102108.97;6245932;23;20000;-77
2022/04/14 10:38:43;;;;;;;9.38;4.35;;;;;;;17.08;57.55;102137.34;6247754;23;20010;-79
2022/04/14 10:41:20;;;;;;;11.40;4.43;;;;;;;17.08;57.54;102125.13;6246602;23;20075;-77
2022/04/14 10:43:46;;;;;;;9.98;4.00;;;;;;;17.16;59.07;102129.81;6246797;23;20487;-77
2022/04/14 10:46:16;;;;;;;11.07;4.75;;;;;;;17.19;56.86;102135.63;6247381;23;20000;-76
2022/04/14 10:48:44;;;;;;;9.65;4.60;;;;;;;17.34;57.21;102132.91;6246943;23;20000;-79
2022/04/14 10:51:27;;;;;;;9.20;3.78;;;;;;;17.39;57.65;102121.19;6247144;23;20038;-78
2022/04/14 10:54:06;;;;;;;10.88;5.03;;;;;;;17.37;55.58;102112.63;6247261;23;20330;-78
2022/04/14 10:56:34;;;;;;;8.05;3.83;;;;;;;17.39;53.40;102123.78;6247087;23;20001;-78
2022/04/14 10:59:01;;;;;;;9.95;3.75;;;;;;;17.52;55.92;102121.16;6246586;23;20008;-79
2022/04/14 11:01:45;;;;;;;11.90;4.80;;;;;;;17.73;56.18;102124.03;6246824;23;20004;-79
2022/04/14 11:04:23;;;;;;;12.77;4.20;;;;;;;18.14;55.17;102122.75;6247118;23;20039;-80
2022/04/14 11:06:51;;;;;;;9.93;3.15;;;;;;;18.45;51.89;102106.44;6246359;23;20000;-81
2022/04/14 11:09:42;;;;;;;7.15;1.95;;;;;;;18.87;51.38;102081.38;6246808;23;20011;-82
2022/04/14 11:12:10;;;;;;;9.57;3.25;;;;;;;19.34;48.91;102094.28;6246900;23;20000;-79
2022/04/14 11:14:56;;;;;;;7.50;2.85;;;;;;;19.52;48.69;102121.66;6246496;22;20111;-82